Time;durP1;ratioP1;P1;durP2;ratioP2;P2;SDS_P1;SDS_P2;PMS_P1;PMS_P2;Temp;Humidity;BMP_temperature;BMP_pressure;BME280_temperature;BME280_humidity;BME280_pressure;Samples;Min_cycle;Max_cycle;Signal;HPM_P1;HPM_P2
2023/09/11 00:00:52;;;;;;;14.18;9.10;;;22.20;99.90;;;;;;2082088;28;20029;-70
2023/09/11 00:01:52;;;;;;;15.13;8.90;;;22.30;99.90;;;;;;2082329;28;20033;-70
2023/09/11 00:02:53;;;;;;;14.23;8.10;;;22.20;99.90;;;;;;2082531;28;20535;-70
2023/09/11 00:03:53;;;;;;;22.58;16.65;;;22.20;99.90;;;;;;2082831;28;20024;-70
2023/09/11 00:04:54;;;;;;;21.33;14.68;;;22.20;99.90;;;;;;2082534;28;20029;-70
2023/09/11 00:06:03;;;;;;;27.35;17.40;;;22.20;99.90;;;;;;2083256;28;20582;-70
2023/09/11 00:07:04;;;;;;;27.23;17.70;;;22.20;99.90;;;;;;2082763;28;20036;-70
2023/09/11 00:08:05;;;;;;;18.08;9.95;;;22.20;99.90;;;;;;2080984;28;20037;-70
2023/09/11 00:09:05;;;;;;;16.38;10.32;;;22.20;99.90;;;;;;2083598;28;20025;-70
2023/09/11 00:10:06;;;;;;;18.88;12.00;;;22.10;99.90;;;;;;2080675;28;20025;-70
2023/09/11 00:11:07;;;;;;;14.48;10.90;;;22.20;99.90;;;;;;2083078;28;20117;-70
2023/09/11 00:12:07;;;;;;;16.13;10.60;;;22.10;99.90;;;;;;2082866;28;20396;-70
2023/09/11 00:13:08;;;;;;;19.23;10.95;;;22.20;99.90;;;;;;2080452;28;20029;-70
2023/09/11 00:14:08;;;;;;;12.75;9.57;;;22.20;99.90;;;;;;2081322;28;20076;-70
2023/09/11 00:15:09;;;;;;;17.35;10.65;;;22.20;99.90;;;;;;2081576;28;20483;-70
2023/09/11 00:16:10;;;;;;;18.80;11.90;;;22.20;99.90;;;;;;2082297;28;20026;-70
2023/09/11 00:17:10;;;;;;;18.55;10.48;;;22.10;99.90;;;;;;2082013;28;20059;-70
2023/09/11 00:18:11;;;;;;;16.40;11.90;;;22.10;99.90;;;;;;2083843;28;20044;-70
2023/09/11 00:19:12;;;;;;;16.73;12.02;;;22.20;99.90;;;;;;2081439;28;20025;-70
2023/09/11 00:20:12;;;;;;;13.98;10.20;;;22.10;99.90;;;;;;2081978;28;20040;-70
2023/09/11 00:21:13;;;;;;;17.33;11.95;;;22.10;99.90;;;;;;2080654;28;20037;-70
2023/09/11 00:22:13;;;;;;;17.23;11.55;;;22.10;99.90;;;;;;2082009;28;20504;-70
2023/09/11 00:23:14;;;;;;;21.15;13.35;;;22.10;99.90;;;;;;2083527;28;20095;-70
2023/09/11 00:24:14;;;;;;;19.75;11.73;;;22.10;99.90;;;;;;2083209;28;20083;-70
2023/09/11 00:25:15;;;;;;;18.98;12.35;;;22.10;99.90;;;;;;2080149;28;20583;-71
2023/09/11 00:26:16;;;;;;;18.90;13.50;;;22.10;99.90;;;;;;2082792;28;20042;-70
2023/09/11 00:27:16;;;;;;;16.33;13.10;;;22.10;99.90;;;;;;2081438;28;20393;-70
2023/09/11 00:28:17;;;;;;;18.40;13.38;;;22.10;99.90;;;;;;2081202;28;20033;-70
2023/09/11 00:29:17;;;;;;;23.23;13.23;;;22.10;99.90;;;;;;2082003;28;20029;-70
2023/09/11 00:30:18;;;;;;;22.38;13.10;;;22.10;99.90;;;;;;2081383;28;20040;-70
2023/09/11 00:31:19;;;;;;;21.98;13.30;;;22.10;99.90;;;;;;2082656;28;20037;-71
2023/09/11 00:32:19;;;;;;;18.00;12.95;;;22.10;99.90;;;;;;2081045;28;20025;-71
2023/09/11 00:33:20;;;;;;;19.85;12.75;;;22.10;99.90;;;;;;2082275;28;20107;-71
2023/09/11 00:34:20;;;;;;;17.45;12.48;;;22.10;99.90;;;;;;2084365;28;20086;-71
2023/09/11 00:35:21;;;;;;;15.40;11.20;;;22.10;99.90;;;;;;2082136;28;20144;-71
2023/09/11 00:36:21;;;;;;;19.92;12.90;;;22.00;99.90;;;;;;2082030;28;20120;-71
2023/09/11 00:37:22;;;;;;;16.90;12.90;;;22.10;99.90;;;;;;2082001;28;20029;-71
2023/09/11 00:38:22;;;;;;;21.98;14.85;;;22.00;99.90;;;;;;2081510;28;20032;-71
2023/09/11 00:39:23;;;;;;;18.85;14.75;;;22.00;99.90;;;;;;2081415;28;20388;-71
2023/09/11 00:40:24;;;;;;;21.77;14.98;;;22.00;99.90;;;;;;2079850;28;20028;-71
2023/09/11 00:41:24;;;;;;;22.00;15.43;;;22.00;99.90;;;;;;2082827;28;20373;-71
2023/09/11 00:42:25;;;;;;;23.63;15.88;;;22.00;99.90;;;;;;2082213;28;20024;-71
2023/09/11 00:43:25;;;;;;;20.63;15.90;;;22.00;99.90;;;;;;2083134;28;20032;-71
2023/09/11 00:44:26;;;;;;;23.40;16.02;;;22.00;99.90;;;;;;2082912;28;20031;-71
2023/09/11 00:45:27;;;;;;;22.70;16.42;;;22.00;99.90;;;;;;2083541;28;20017;-71
2023/09/11 00:46:28;;;;;;;24.20;16.17;;;22.00;99.90;;;;;;2081680;28;20109;-71
2023/09/11 00:47:29;;;;;;;23.65;16.50;;;22.00;99.90;;;;;;2082250;28;20029;-71
2023/09/11 00:48:30;;;;;;;25.50;15.43;;;22.00;99.90;;;;;;2081062;28;20063;-71
2023/09/11 00:49:31;;;;;;;23.83;15.90;;;22.00;99.90;;;;;;2082280;28;20060;-71
2023/09/11 00:50:32;;;;;;;21.20;15.07;;;21.90;99.90;;;;;;2080724;28;20055;-71
2023/09/11 00:51:34;;;;;;;22.23;16.80;;;21.90;99.90;;;;;;2081716;28;20041;-71
2023/09/11 00:52:35;;;;;;;27.23;19.25;;;21.90;99.90;;;;;;2080688;28;20025;-71
2023/09/11 00:53:36;;;;;;;29.40;19.85;;;21.90;99.90;;;;;;2081729;28;20078;-71
2023/09/11 00:54:37;;;;;;;21.58;14.90;;;21.90;99.90;;;;;;2081390;28;20029;-71
2023/09/11 00:55:38;;;;;;;23.83;18.23;;;21.90;99.90;;;;;;2082215;28;20025;-71
2023/09/11 00:56:39;;;;;;;24.98;19.02;;;21.90;99.90;;;;;;2079907;28;20075;-71
2023/09/11 00:57:41;;;;;;;30.27;19.40;;;21.80;99.90;;;;;;2082675;28;20021;-71
2023/09/11 00:58:43;;;;;;;21.80;18.10;;;21.80;99.90;;;;;;2080322;28;20033;-71
2023/09/11 00:59:50;;;;;;;23.23;19.08;;;21.80;99.90;;;;;;2079530;28;20025;-71
2023/09/11 01:00:52;;;;;;;24.23;19.60;;;21.80;99.90;;;;;;2082464;28;20018;-71
2023/09/11 01:01:53;;;;;;;27.30;20.00;;;21.80;99.90;;;;;;2081147;28;20490;-71
2023/09/11 01:02:54;;;;;;;25.33;19.15;;;21.80;99.90;;;;;;2082688;28;20082;-71
2023/09/11 01:03:55;;;;;;;25.00;18.50;;;21.80;99.90;;;;;;2083862;28;20025;-71
2023/09/11 01:04:55;;;;;;;29.20;19.40;;;21.80;99.90;;;;;;2082404;28;20136;-71
2023/09/11 01:05:56;;;;;;;22.92;17.08;;;21.80;99.90;;;;;;2080929;28;20020;-71
2023/09/11 01:06:57;;;;;;;27.38;19.05;;;21.80;99.90;;;;;;2082576;28;20025;-71
2023/09/11 01:07:57;;;;;;;27.67;21.00;;;21.80;99.90;;;;;;2082444;28;20033;-71
2023/09/11 01:08:58;;;;;;;22.00;18.60;;;21.70;99.90;;;;;;2084116;28;20021;-71
2023/09/11 01:09:59;;;;;;;21.92;17.52;;;21.70;99.90;;;;;;2082004;28;20037;-71
2023/09/11 01:10:59;;;;;;;27.13;19.00;;;21.70;99.90;;;;;;2080793;28;20492;-71
2023/09/11 01:12:00;;;;;;;20.75;16.92;;;21.70;99.90;;;;;;2081716;28;20028;-71
2023/09/11 01:13:03;;;;;;;27.73;19.48;;;21.70;99.90;;;;;;2082048;28;20035;-71
2023/09/11 01:14:04;;;;;;;23.90;18.63;;;21.70;99.90;;;;;;2082911;28;20025;-71
2023/09/11 01:15:06;;;;;;;29.65;20.30;;;21.70;99.90;;;;;;2081489;28;20034;-71
2023/09/11 01:16:35;;;;;;;26.20;19.58;;;21.70;99.90;;;;;;2082718;28;20056;-71
2023/09/11 01:17:45;;;;;;;23.33;18.27;;;21.70;99.90;;;;;;2083939;28;20567;-71
2023/09/11 01:19:11;;;;;;;24.23;17.50;;;21.60;99.90;;;;;;2081567;28;20061;-71
2023/09/11 01:20:44;;;;;;;24.58;18.75;;;21.60;99.90;;;;;;2081623;28;20427;-71
2023/09/11 01:22:17;;;;;;;23.90;18.45;;;21.60;99.90;;;;;;2081179;28;20052;-71
2023/09/11 01:23:39;;;;;;;20.88;18.48;;;21.60;99.90;;;;;;2081960;28;20476;-71
2023/09/11 01:25:00;;;;;;;27.52;19.65;;;21.50;99.90;;;;;;2081516;28;20036;-71
2023/09/11 01:26:17;;;;;;;20.38;17.27;;;21.50;99.90;;;;;;2082996;28;20030;-71
2023/09/11 01:27:45;;;;;;;24.33;19.02;;;21.50;99.90;;;;;;2081805;28;20029;-71
2023/09/11 01:28:54;;;;;;;26.67;19.25;;;21.40;99.90;;;;;;2079718;28;21482;-71
2023/09/11 01:29:57;;;;;;;24.60;19.98;;;21.40;99.90;;;;;;2080595;28;20117;-71
2023/09/11 01:30:59;;;;;;;25.20;18.50;;;21.40;99.90;;;;;;2083012;28;20038;-71
2023/09/11 01:32:02;;;;;;;29.17;18.67;;;21.40;99.90;;;;;;2079422;28;20032;-71
2023/09/11 01:33:03;;;;;;;23.88;17.95;;;21.40;99.90;;;;;;2082292;28;21059;-71
2023/09/11 01:34:05;;;;;;;24.13;17.52;;;21.40;99.90;;;;;;2081691;28;20033;-71
2023/09/11 01:35:06;;;;;;;24.42;19.70;;;21.40;99.90;;;;;;2080632;28;20025;-71
2023/09/11 01:36:07;;;;;;;27.25;20.38;;;21.40;99.90;;;;;;2082076;28;20163;-71
2023/09/11 01:37:07;;;;;;;27.10;20.02;;;21.40;99.90;;;;;;2081560;28;20041;-71
2023/09/11 01:38:08;;;;;;;26.45;18.75;;;21.40;99.90;;;;;;2079600;28;20419;-71
2023/09/11 01:39:10;;;;;;;26.85;19.95;;;21.40;99.90;;;;;;2081120;28;20029;-71
2023/09/11 01:40:10;;;;;;;25.50;17.65;;;21.40;99.90;;;;;;2081473;28;20048;-71
2023/09/11 01:41:14;;;;;;;23.95;19.48;;;21.40;99.90;;;;;;2081692;28;20075;-70
2023/09/11 01:42:20;;;;;;;26.95;19.83;;;21.40;99.90;;;;;;2081239;28;20404;-70
2023/09/11 01:43:25;;;;;;;23.85;18.88;;;21.40;99.90;;;;;;2083645;28;20064;-70
2023/09/11 01:44:46;;;;;;;27.77;19.80;;;21.40;99.90;;;;;;2087438;28;20109;-70
2023/09/11 01:45:48;;;;;;;26.55;18.85;;;21.40;99.90;;;;;;2088305;28;20365;-70
2023/09/11 01:46:51;;;;;;;29.55;21.60;;;21.40;99.90;;;;;;2081655;28;20423;-70
2023/09/11 01:47:53;;;;;;;24.20;17.83;;;21.30;99.90;;;;;;2083737;28;20048;-70
2023/09/11 01:48:54;;;;;;;25.23;19.73;;;21.30;99.90;;;;;;2083482;28;20029;-70
2023/09/11 01:49:56;;;;;;;24.38;18.92;;;21.30;99.90;;;;;;2080057;28;20049;-70
2023/09/11 01:50:57;;;;;;;27.77;19.70;;;21.30;99.90;;;;;;2080853;28;20040;-70
2023/09/11 01:52:00;;;;;;;31.05;20.05;;;21.30;99.90;;;;;;2081993;28;20025;-70
2023/09/11 01:53:01;;;;;;;20.85;17.73;;;21.30;99.90;;;;;;2081257;28;20138;-70
2023/09/11 01:54:03;;;;;;;25.67;18.90;;;21.30;99.90;;;;;;2080755;28;20085;-70
2023/09/11 01:55:04;;;;;;;22.05;16.95;;;21.30;99.90;;;;;;2080252;28;20480;-70
2023/09/11 01:56:05;;;;;;;22.73;18.80;;;21.30;99.90;;;;;;2082000;28;20138;-70
2023/09/11 01:57:06;;;;;;;21.13;16.95;;;21.30;99.90;;;;;;2082566;28;20032;-70
2023/09/11 01:58:07;;;;;;;23.05;18.20;;;21.30;99.90;;;;;;2082243;28;20498;-70
2023/09/11 01:59:08;;;;;;;25.30;18.88;;;21.30;99.90;;;;;;2079385;28;20142;-70
2023/09/11 02:00:09;;;;;;;23.90;17.95;;;21.30;99.90;;;;;;2080287;28;20057;-70
2023/09/11 02:01:10;;;;;;;20.25;16.30;;;21.30;99.90;;;;;;2083064;28;20143;-70
2023/09/11 02:02:10;;;;;;;21.20;17.92;;;21.20;99.90;;;;;;2080025;28;20030;-70
2023/09/11 02:03:11;;;;;;;22.27;18.08;;;21.30;99.90;;;;;;2084242;28;20075;-70
2023/09/11 02:04:12;;;;;;;25.08;18.10;;;21.20;99.90;;;;;;2080915;28;20067;-70
2023/09/11 02:05:12;;;;;;;24.33;17.20;;;21.30;99.90;;;;;;2082269;28;20436;-70
2023/09/11 02:06:13;;;;;;;22.50;17.90;;;21.20;99.90;;;;;;2082156;28;21166;-70
2023/09/11 02:07:13;;;;;;;25.50;18.27;;;21.20;99.90;;;;;;2080914;28;20033;-70
2023/09/11 02:08:14;;;;;;;20.83;16.63;;;21.20;99.90;;;;;;2081608;28;20045;-70
2023/09/11 02:09:14;;;;;;;23.13;17.27;;;21.20;99.90;;;;;;2081799;28;20055;-70
2023/09/11 02:10:16;;;;;;;22.90;18.45;;;21.20;99.90;;;;;;2080908;28;20041;-70
2023/09/11 02:11:17;;;;;;;20.27;16.27;;;21.20;99.90;;;;;;2081262;28;20103;-70
2023/09/11 02:12:17;;;;;;;22.85;17.85;;;21.20;99.90;;;;;;2081198;28;20107;-70
2023/09/11 02:13:18;;;;;;;22.38;16.75;;;21.20;99.90;;;;;;2079750;28;20017;-70
2023/09/11 02:14:18;;;;;;;21.95;18.15;;;21.20;99.90;;;;;;2082776;28;20056;-70
2023/09/11 02:15:19;;;;;;;22.60;18.02;;;21.20;99.90;;;;;;2079470;28;20036;-70
2023/09/11 02:16:19;;;;;;;26.00;17.85;;;21.20;99.90;;;;;;2080417;28;20457;-70
2023/09/11 02:17:20;;;;;;;29.23;18.73;;;21.10;99.90;;;;;;2080660;28;20030;-70
2023/09/11 02:18:20;;;;;;;20.50;17.95;;;21.10;99.90;;;;;;2082920;28;20025;-70
2023/09/11 02:19:21;;;;;;;20.17;17.38;;;21.10;99.90;;;;;;2081155;28;20078;-70
2023/09/11 02:20:22;;;;;;;22.35;18.45;;;21.10;99.90;;;;;;2081466;28;20104;-70
2023/09/11 02:21:22;;;;;;;21.42;17.50;;;21.10;99.90;;;;;;2080465;28;20108;-70
2023/09/11 02:22:23;;;;;;;23.40;17.25;;;21.10;99.90;;;;;;2082613;28;20084;-70
2023/09/11 02:23:23;;;;;;;19.95;17.65;;;21.10;99.90;;;;;;2083819;28;20033;-70
2023/09/11 02:24:24;;;;;;;26.73;17.88;;;21.10;99.90;;;;;;2081846;28;20056;-70
2023/09/11 02:25:25;;;;;;;21.75;17.13;;;21.10;99.90;;;;;;2081291;28;20512;-70
2023/09/11 02:26:26;;;;;;;21.48;15.65;;;21.10;99.90;;;;;;2082071;28;20021;-70
2023/09/11 02:27:27;;;;;;;23.30;17.50;;;21.10;99.90;;;;;;2079010;28;20018;-70
2023/09/11 02:28:28;;;;;;;19.15;15.75;;;21.10;99.90;;;;;;2081187;28;20528;-70
2023/09/11 02:29:28;;;;;;;22.02;16.88;;;21.10;99.90;;;;;;2080453;28;20413;-70
2023/09/11 02:30:29;;;;;;;21.20;17.13;;;21.10;99.90;;;;;;2080178;28;20026;-70
2023/09/11 02:31:29;;;;;;;22.27;17.30;;;21.10;99.90;;;;;;2081220;28;20057;-70
2023/09/11 02:32:30;;;;;;;22.33;16.65;;;21.10;99.90;;;;;;2081438;28;20029;-70
2023/09/11 02:33:30;;;;;;;26.15;17.17;;;21.10;99.90;;;;;;2080999;28;20036;-70
2023/09/11 02:34:31;;;;;;;21.45;15.38;;;21.10;99.90;;;;;;2081187;28;20624;-70
2023/09/11 02:35:32;;;;;;;19.33;16.40;;;21.00;99.90;;;;;;2081792;28;20111;-70
2023/09/11 02:36:32;;;;;;;24.85;17.27;;;21.00;99.90;;;;;;2082595;28;20096;-70
2023/09/11 02:37:33;;;;;;;25.90;17.67;;;21.00;99.90;;;;;;2079804;28;20033;-70
2023/09/11 02:38:33;;;;;;;20.58;16.75;;;21.00;99.90;;;;;;2082664;28;20025;-70
2023/09/11 02:39:35;;;;;;;22.27;17.73;;;21.00;99.90;;;;;;2079923;28;20083;-70
2023/09/11 02:40:37;;;;;;;20.48;17.42;;;21.00;99.90;;;;;;2080128;28;20032;-70
2023/09/11 02:41:37;;;;;;;20.73;16.27;;;21.00;99.90;;;;;;2082808;28;20029;-71
2023/09/11 02:42:38;;;;;;;18.35;16.08;;;21.00;99.90;;;;;;2079557;28;20084;-70
2023/09/11 02:43:38;;;;;;;19.90;16.23;;;21.00;99.90;;;;;;2079705;28;20097;-70
2023/09/11 02:44:39;;;;;;;22.60;17.15;;;20.90;99.90;;;;;;2081243;28;20028;-70
2023/09/11 02:45:43;;;;;;;20.08;16.70;;;20.90;99.90;;;;;;2080845;28;20535;-70
2023/09/11 02:46:43;;;;;;;19.27;17.17;;;20.90;99.90;;;;;;2082993;28;20029;-70
2023/09/11 02:47:44;;;;;;;22.23;16.27;;;20.90;99.90;;;;;;2080451;28;20033;-70
2023/09/11 02:48:46;;;;;;;20.15;15.80;;;20.90;99.90;;;;;;2082091;28;20488;-70
2023/09/11 02:49:47;;;;;;;21.65;15.68;;;20.90;99.90;;;;;;2082970;28;20418;-70
2023/09/11 02:50:47;;;;;;;22.73;15.85;;;20.90;99.90;;;;;;2083151;28;20104;-71
2023/09/11 02:51:48;;;;;;;19.20;15.48;;;20.90;99.90;;;;;;2083703;28;20025;-71
2023/09/11 02:52:48;;;;;;;18.73;15.55;;;20.90;99.90;;;;;;2081057;28;20033;-71
2023/09/11 02:53:49;;;;;;;21.27;16.63;;;20.90;99.90;;;;;;2083629;28;20780;-71
2023/09/11 02:54:49;;;;;;;20.60;16.25;;;20.90;99.90;;;;;;2082030;28;20013;-71
2023/09/11 02:55:50;;;;;;;20.67;15.98;;;20.90;99.90;;;;;;2082875;28;20098;-71
2023/09/11 02:56:50;;;;;;;20.92;14.93;;;20.90;99.90;;;;;;2082098;28;20025;-71
2023/09/11 02:57:51;;;;;;;20.30;15.90;;;20.80;99.90;;;;;;2082051;28;20423;-71
2023/09/11 02:58:52;;;;;;;22.20;16.27;;;20.90;99.90;;;;;;2080873;28;20021;-71
2023/09/11 02:59:55;;;;;;;20.63;16.02;;;20.80;99.90;;;;;;2081995;28;20869;-71
2023/09/11 03:01:00;;;;;;;22.35;16.17;;;20.80;99.90;;;;;;2079270;28;20481;-71
2023/09/11 03:02:01;;;;;;;22.13;16.42;;;20.80;99.90;;;;;;2084043;28;20025;-71
2023/09/11 03:03:03;;;;;;;21.10;16.08;;;20.80;99.90;;;;;;2083201;28;20029;-71
2023/09/11 03:04:04;;;;;;;19.00;14.88;;;20.80;99.90;;;;;;2081860;28;20117;-71
2023/09/11 03:05:04;;;;;;;16.73;15.02;;;20.80;99.90;;;;;;2081974;28;20040;-71
2023/09/11 03:06:05;;;;;;;17.70;15.40;;;20.80;99.90;;;;;;2082993;28;20469;-71
2023/09/11 03:07:06;;;;;;;18.70;15.93;;;20.80;99.90;;;;;;2084708;28;20033;-71
2023/09/11 03:08:07;;;;;;;18.08;16.00;;;20.80;99.90;;;;;;2081856;28;20025;-71
2023/09/11 03:09:08;;;;;;;17.90;15.43;;;20.80;99.90;;;;;;2083819;28;20036;-71
2023/09/11 03:10:09;;;;;;;21.35;16.13;;;20.80;99.90;;;;;;2082176;28;20033;-71
2023/09/11 03:11:10;;;;;;;23.50;16.65;;;20.70;99.90;;;;;;2081634;28;20033;-71
2023/09/11 03:12:11;;;;;;;21.80;15.90;;;20.70;99.90;;;;;;2081088;28;20029;-71
2023/09/11 03:13:11;;;;;;;22.95;15.80;;;20.70;99.90;;;;;;2081612;28;20078;-71
2023/09/11 03:14:13;;;;;;;18.63;15.27;;;20.80;99.90;;;;;;2081391;28;21821;-71
2023/09/11 03:15:13;;;;;;;17.80;15.88;;;20.80;99.90;;;;;;2084809;28;20029;-71
2023/09/11 03:16:15;;;;;;;18.23;14.68;;;20.80;99.90;;;;;;2083331;28;20083;-71
2023/09/11 03:17:16;;;;;;;19.10;15.55;;;20.70;99.90;;;;;;2085154;28;20034;-71
2023/09/11 03:18:16;;;;;;;18.20;15.52;;;20.70;99.90;;;;;;2084843;28;20033;-71
2023/09/11 03:19:17;;;;;;;21.45;15.32;;;20.70;99.90;;;;;;2082364;28;20108;-71
2023/09/11 03:20:17;;;;;;;20.85;14.63;;;20.70;99.90;;;;;;2082446;28;20026;-71
2023/09/11 03:21:18;;;;;;;19.33;14.60;;;20.70;99.90;;;;;;2082216;28;20064;-71
2023/09/11 03:22:18;;;;;;;19.30;14.90;;;20.70;99.90;;;;;;2087118;28;20471;-71
2023/09/11 03:23:21;;;;;;;17.92;14.75;;;20.70;99.90;;;;;;2083819;28;20024;-71
2023/09/11 03:24:22;;;;;;;21.33;15.23;;;20.70;99.90;;;;;;2081680;28;20064;-71
2023/09/11 03:25:22;;;;;;;16.35;14.65;;;20.70;99.90;;;;;;2082763;28;20021;-72
2023/09/11 03:26:23;;;;;;;20.73;15.95;;;20.70;99.90;;;;;;2082284;28;20075;-72
2023/09/11 03:27:23;;;;;;;19.17;15.95;;;20.60;99.90;;;;;;2082117;28;20067;-72
2023/09/11 03:28:29;;;;;;;17.65;14.43;;;20.60;99.90;;;;;;2083895;28;20043;-71
2023/09/11 03:29:29;;;;;;;17.88;14.45;;;20.60;99.90;;;;;;2083503;28;20399;-71
2023/09/11 03:30:30;;;;;;;18.77;14.55;;;20.60;99.90;;;;;;2078526;28;20029;-71
2023/09/11 03:31:30;;;;;;;16.65;14.77;;;20.60;99.90;;;;;;2082866;28;20022;-71
2023/09/11 03:32:31;;;;;;;18.17;14.20;;;20.60;99.90;;;;;;2082826;28;20033;-71
2023/09/11 03:33:31;;;;;;;20.15;15.38;;;20.60;99.90;;;;;;2083570;28;20475;-71
2023/09/11 03:34:32;;;;;;;20.00;14.52;;;20.60;99.90;;;;;;2083904;28;20071;-71
2023/09/11 03:35:32;;;;;;;17.00;14.73;;;20.60;99.90;;;;;;2082019;28;20104;-71
2023/09/11 03:36:33;;;;;;;18.40;13.63;;;20.60;99.90;;;;;;2082627;28;20485;-71
2023/09/11 03:37:33;;;;;;;19.42;14.07;;;20.60;99.90;;;;;;2081632;28;20044;-71
2023/09/11 03:38:34;;;;;;;19.30;13.98;;;20.50;99.90;;;;;;2083971;28;20033;-71
2023/09/11 03:39:34;;;;;;;18.65;13.82;;;20.50;99.90;;;;;;2083171;28;20048;-71
2023/09/11 03:40:35;;;;;;;16.45;12.10;;;20.60;99.90;;;;;;2080762;28;20087;-71
2023/09/11 03:41:36;;;;;;;16.55;13.50;;;20.50;99.90;;;;;;2082974;28;20026;-71
2023/09/11 03:42:36;;;;;;;15.65;12.63;;;20.50;99.90;;;;;;2081435;28;20075;-71
2023/09/11 03:43:37;;;;;;;14.63;12.52;;;20.50;99.90;;;;;;2082562;28;20030;-71
2023/09/11 03:44:37;;;;;;;16.23;13.40;;;20.50;99.90;;;;;;2083853;28;20033;-71
2023/09/11 03:45:38;;;;;;;17.67;14.30;;;20.50;99.90;;;;;;2083213;28;20028;-71
2023/09/11 03:46:39;;;;;;;18.80;12.68;;;20.50;99.90;;;;;;2082851;28;20032;-71
2023/09/11 03:47:40;;;;;;;17.70;13.38;;;20.50;99.90;;;;;;2080118;28;20108;-71
2023/09/11 03:48:41;;;;;;;17.75;12.30;;;20.50;99.90;;;;;;2082256;28;20025;-71
2023/09/11 03:49:41;;;;;;;17.83;13.68;;;20.50;99.90;;;;;;2082483;28;20503;-71
2023/09/11 03:50:42;;;;;;;16.90;12.27;;;20.50;99.90;;;;;;2082177;28;20021;-71
2023/09/11 03:51:42;;;;;;;21.08;12.60;;;20.50;99.90;;;;;;2081894;28;20017;-71
2023/09/11 03:52:43;;;;;;;16.00;11.57;;;20.40;99.90;;;;;;2082914;28;20083;-71
2023/09/11 03:53:44;;;;;;;17.38;12.88;;;20.50;99.90;;;;;;2081730;28;20029;-71
2023/09/11 03:54:44;;;;;;;19.33;13.07;;;20.50;99.90;;;;;;2081785;28;20055;-71
2023/09/11 03:55:45;;;;;;;16.88;12.93;;;20.40;99.90;;;;;;2083361;28;20029;-71
2023/09/11 03:56:46;;;;;;;15.32;12.65;;;20.40;99.90;;;;;;2081111;28;20463;-71
2023/09/11 03:57:46;;;;;;;18.80;12.43;;;20.40;99.90;;;;;;2084378;28;20448;-71
2023/09/11 03:58:47;;;;;;;13.50;12.10;;;20.40;99.90;;;;;;2083609;28;20105;-71
2023/09/11 03:59:47;;;;;;;13.73;11.93;;;20.40;99.90;;;;;;2080516;28;20075;-71
2023/09/11 04:00:48;;;;;;;16.63;11.70;;;20.40;99.90;;;;;;2080312;28;20930;-71
2023/09/11 04:01:49;;;;;;;16.23;12.43;;;20.40;99.90;;;;;;2082558;28;20053;-71
2023/09/11 04:02:49;;;;;;;15.35;12.57;;;20.40;99.90;;;;;;2081548;28;20033;-71
2023/09/11 04:03:50;;;;;;;16.40;11.90;;;20.40;99.90;;;;;;2081603;28;20106;-71
2023/09/11 04:04:50;;;;;;;16.00;10.65;;;20.30;99.90;;;;;;2081371;28;20025;-71
2023/09/11 04:05:51;;;;;;;16.00;11.73;;;20.40;99.90;;;;;;2083516;28;20034;-71
2023/09/11 04:06:51;;;;;;;15.35;11.80;;;20.30;99.90;;;;;;2083117;28;20029;-71
2023/09/11 04:07:52;;;;;;;12.70;11.07;;;20.30;99.90;;;;;;2081900;28;20067;-71
2023/09/11 04:08:52;;;;;;;14.05;11.38;;;20.30;99.90;;;;;;2082518;28;20037;-71
2023/09/11 04:09:53;;;;;;;14.23;11.32;;;20.30;99.90;;;;;;2081976;28;20036;-71
2023/09/11 04:10:53;;;;;;;19.50;11.75;;;20.30;99.90;;;;;;2082517;28;20476;-71
2023/09/11 04:11:54;;;;;;;13.35;11.63;;;20.30;99.90;;;;;;2082610;28;20055;-71
2023/09/11 04:12:54;;;;;;;22.08;12.57;;;20.30;99.90;;;;;;2081229;28;20040;-71
2023/09/11 04:13:55;;;;;;;18.50;12.45;;;20.30;99.90;;;;;;2081388;28;20044;-71
2023/09/11 04:14:55;;;;;;;14.60;11.85;;;20.30;99.90;;;;;;2082207;28;20068;-71
2023/09/11 04:15:56;;;;;;;14.50;11.85;;;20.30;99.90;;;;;;2082199;28;20017;-71
2023/09/11 04:16:57;;;;;;;16.00;11.85;;;20.30;99.90;;;;;;2082948;28;20037;-71
2023/09/11 04:17:57;;;;;;;16.95;11.35;;;20.30;99.90;;;;;;2082915;28;20032;-71
2023/09/11 04:18:58;;;;;;;14.65;10.48;;;20.30;99.90;;;;;;2083770;28;20024;-71
2023/09/11 04:19:59;;;;;;;14.90;11.93;;;20.20;99.90;;;;;;2081480;28;20610;-71
2023/09/11 04:21:01;;;;;;;15.55;11.38;;;20.20;99.90;;;;;;2085391;28;20706;-71
2023/09/11 04:22:02;;;;;;;12.18;10.63;;;20.20;99.90;;;;;;2086831;28;20040;-71
2023/09/11 04:23:03;;;;;;;14.98;11.65;;;20.20;99.90;;;;;;2081661;28;20051;-71
2023/09/11 04:24:06;;;;;;;16.70;11.35;;;20.20;99.90;;;;;;2082678;28;20067;-71
2023/09/11 04:25:07;;;;;;;14.18;11.90;;;20.20;99.90;;;;;;2082856;28;20123;-71
2023/09/11 04:26:08;;;;;;;14.05;11.77;;;20.30;99.90;;;;;;2081078;28;20485;-71
2023/09/11 04:27:09;;;;;;;16.98;11.77;;;20.20;99.90;;;;;;2080938;28;20021;-71
2023/09/11 04:28:09;;;;;;;15.18;11.75;;;20.20;99.90;;;;;;2082551;28;20044;-71
2023/09/11 04:29:13;;;;;;;15.25;10.77;;;20.20;99.90;;;;;;2081179;28;20087;-71
2023/09/11 04:30:14;;;;;;;16.00;11.88;;;20.20;99.90;;;;;;2082425;28;20053;-71
2023/09/11 04:31:15;;;;;;;12.52;11.13;;;20.20;99.90;;;;;;2082103;28;20578;-71
2023/09/11 04:32:18;;;;;;;15.63;10.85;;;20.20;99.90;;;;;;2082180;28;20433;-71
2023/09/11 04:33:19;;;;;;;14.02;11.13;;;20.20;99.90;;;;;;2081864;28;20022;-71
2023/09/11 04:34:19;;;;;;;14.88;10.93;;;20.20;99.90;;;;;;2081443;28;20017;-71
2023/09/11 04:35:20;;;;;;;16.10;11.35;;;20.20;99.90;;;;;;2083602;28;20040;-71
2023/09/11 04:36:20;;;;;;;17.15;10.80;;;20.20;99.90;;;;;;2082500;28;20021;-71
2023/09/11 04:37:21;;;;;;;16.45;11.70;;;20.20;99.90;;;;;;2079560;28;20030;-71
2023/09/11 04:38:21;;;;;;;14.77;10.93;;;20.20;99.90;;;;;;2081550;28;20040;-71
2023/09/11 04:39:23;;;;;;;12.85;11.18;;;20.10;99.90;;;;;;2082000;28;20025;-71
2023/09/11 04:40:24;;;;;;;14.95;11.23;;;20.20;99.90;;;;;;2082910;28;20030;-71
2023/09/11 04:41:24;;;;;;;15.70;11.30;;;20.20;99.90;;;;;;2083299;28;20028;-71
2023/09/11 04:42:25;;;;;;;17.92;11.73;;;20.10;99.90;;;;;;2082317;28;20387;-71
2023/09/11 04:43:25;;;;;;;17.85;11.02;;;20.10;99.90;;;;;;2083132;28;20036;-71
2023/09/11 04:44:26;;;;;;;18.05;11.60;;;20.10;99.90;;;;;;2080321;28;20059;-71
2023/09/11 04:45:26;;;;;;;14.73;11.18;;;20.10;99.90;;;;;;2082964;28;20487;-71
2023/09/11 04:46:27;;;;;;;15.32;11.70;;;20.20;99.90;;;;;;2083539;28;20025;-71
2023/09/11 04:47:32;;;;;;;14.38;11.85;;;20.10;99.90;;;;;;2081492;28;20032;-71
2023/09/11 04:48:33;;;;;;;16.48;11.20;;;20.20;99.90;;;;;;2082347;28;20034;-71
2023/09/11 04:49:33;;;;;;;13.82;11.65;;;20.20;99.90;;;;;;2083193;28;20036;-71
2023/09/11 04:50:34;;;;;;;19.17;12.70;;;20.10;99.90;;;;;;2081039;28;20671;-71
2023/09/11 04:51:35;;;;;;;13.85;10.57;;;20.10;99.90;;;;;;2081051;28;20032;-71
2023/09/11 04:52:35;;;;;;;14.38;10.60;;;20.10;99.90;;;;;;2081906;28;20052;-71
2023/09/11 04:53:36;;;;;;;12.95;10.98;;;20.10;99.90;;;;;;2081069;28;20444;-71
2023/09/11 04:54:36;;;;;;;15.93;11.35;;;20.10;99.90;;;;;;2080853;28;20021;-71
2023/09/11 04:55:37;;;;;;;14.52;10.90;;;20.10;99.90;;;;;;2082557;28;20029;-73
2023/09/11 04:56:37;;;;;;;18.30;11.70;;;20.10;99.90;;;;;;2082647;28;20063;-71
2023/09/11 04:57:40;;;;;;;14.40;11.90;;;20.10;99.90;;;;;;2085213;28;20040;-71
2023/09/11 04:58:40;;;;;;;16.35;11.88;;;20.10;99.90;;;;;;2081487;28;20479;-71
2023/09/11 04:59:42;;;;;;;19.35;11.52;;;20.10;99.90;;;;;;2082240;28;21729;-71
2023/09/11 05:00:42;;;;;;;18.85;11.30;;;20.10;99.90;;;;;;2081957;28;20035;-71
2023/09/11 05:01:43;;;;;;;19.48;11.43;;;20.10;99.90;;;;;;2075988;28;20030;-71
2023/09/11 05:02:46;;;;;;;13.80;10.98;;;20.10;99.90;;;;;;2085002;28;20118;-71
2023/09/11 05:03:46;;;;;;;13.50;11.18;;;20.10;99.90;;;;;;2081879;28;20369;-71
2023/09/11 05:04:48;;;;;;;15.02;10.85;;;20.10;99.90;;;;;;2081817;28;20024;-72
2023/09/11 05:05:49;;;;;;;14.30;11.02;;;20.10;99.90;;;;;;2081871;28;20033;-72
2023/09/11 05:06:49;;;;;;;14.13;11.38;;;20.10;99.90;;;;;;2081012;28;20070;-71
2023/09/11 05:07:50;;;;;;;14.57;10.02;;;20.10;99.90;;;;;;2081099;28;20117;-71
2023/09/11 05:08:51;;;;;;;15.35;11.20;;;20.10;99.90;;;;;;2082892;28;20030;-71
2023/09/11 05:09:51;;;;;;;15.93;11.18;;;20.10;99.90;;;;;;2081032;28;20059;-71
2023/09/11 05:10:52;;;;;;;12.70;10.25;;;20.10;99.90;;;;;;2082514;28;20159;-71
2023/09/11 05:11:52;;;;;;;17.38;10.50;;;20.10;99.90;;;;;;2081081;28;20040;-72
2023/09/11 05:12:53;;;;;;;15.35;11.15;;;20.00;99.90;;;;;;2083857;28;20028;-72
2023/09/11 05:13:53;;;;;;;13.07;10.35;;;20.00;99.90;;;;;;2081933;28;20020;-72